Time,TemperatureF,DewpointF,PressureIn,WindDirection,WindDirectionDegrees,WindSpeedMPH,WindSpeedGustMPH,Humidity,HourlyPrecipIn,Conditions,Clouds,dailyrainin,SolarRadiationWatts/m^2,SoftwareType,DateUTC
2013-05-21 00:01:00,54.0,42.0,-100.00,North,0,9.0,20.0,63,0.00,,,0.00,0.000000,,2013-05-21 07:01:00,
2013-05-21 00:11:00,54.0,42.0,-100.00,North,0,9.0,20.0,63,0.00,,,0.00,0.000000,,2013-05-21 07:11:00,
2013-05-21 00:21:00,54.0,42.0,-100.00,North,0,9.0,20.0,63,0.00,,,0.00,0.000000,,2013-05-21 07:21:00,
2013-05-21 00:42:00,52.0,40.0,-100.00,North,0,8.0,12.0,64,0.00,,,0.00,0.000000,,2013-05-21 07:42:00,
2013-05-21 00:52:00,52.0,40.0,-100.00,North,0,8.0,12.0,64,0.00,,,0.00,0.000000,,2013-05-21 07:52:00,
2013-05-21 01:01:00,52.0,40.0,-100.00,North,0,8.0,12.0,64,0.00,,,0.00,0.000000,,2013-05-21 08:01:00,
2013-05-21 01:11:00,52.0,40.0,-100.00,North,0,8.0,12.0,64,0.00,,,0.00,0.000000,,2013-05-21 08:11:00,
2013-05-21 01:21:00,52.0,40.0,-100.00,North,0,8.0,12.0,64,0.00,,,0.00,0.000000,,2013-05-21 08:21:00,
2013-05-21 01:42:00,44.0,37.0,-100.00,North,0,3.0,9.0,76,0.00,,,0.00,0.000000,,2013-05-21 08:42:00,
2013-05-21 01:52:00,44.0,37.0,-100.00,North,0,3.0,9.0,76,0.00,,,0.00,0.000000,,2013-05-21 08:52:00,
2013-05-21 02:01:00,44.0,37.0,-100.00,North,0,3.0,9.0,76,0.00,,,0.00,0.000000,,2013-05-21 09:01:00,
2013-05-21 02:21:00,44.0,37.0,-100.00,North,0,3.0,9.0,76,0.00,,,0.00,0.000000,,2013-05-21 09:21:00,
2013-05-21 02:53:00,52.0,41.0,-100.00,North,0,8.0,12.0,66,0.00,,,0.00,0.000000,,2013-05-21 09:53:00,
2013-05-21 03:02:00,52.0,41.0,-100.00,North,0,8.0,12.0,66,0.00,,,0.00,0.000000,,2013-05-21 10:02:00,
2013-05-21 03:12:00,52.0,41.0,-100.00,North,0,8.0,12.0,66,0.00,,,0.00,0.000000,,2013-05-21 10:12:00,
2013-05-21 03:22:00,52.0,41.0,-100.00,North,0,8.0,12.0,66,0.00,,,0.00,0.000000,,2013-05-21 10:22:00,
2013-05-21 03:42:00,53.0,41.0,-100.00,North,0,12.0,16.0,64,0.00,,,0.00,0.000000,,2013-05-21 10:42:00,
2013-05-21 03:52:00,53.0,41.0,-100.00,North,0,12.0,16.0,64,0.00,,,0.00,0.000000,,2013-05-21 10:52:00,
2013-05-21 04:02:00,53.0,41.0,-100.00,North,0,12.0,16.0,64,0.00,,,0.00,0.000000,,2013-05-21 11:02:00,
2013-05-21 04:11:00,53.0,41.0,-100.00,North,0,12.0,16.0,64,0.00,,,0.00,0.000000,,2013-05-21 11:11:00,
2013-05-21 04:21:00,53.0,41.0,-100.00,North,0,12.0,16.0,64,0.00,,,0.00,0.000000,,2013-05-21 11:21:00,
2013-05-21 04:42:00,51.0,41.0,-100.00,North,0,10.0,20.0,68,0.00,,,0.00,0.000000,,2013-05-21 11:42:00,
2013-05-21 04:52:00,51.0,41.0,-100.00,North,0,10.0,20.0,68,0.00,,,0.00,0.000000,,2013-05-21 11:52:00,
2013-05-21 05:01:00,51.0,41.0,-100.00,North,0,10.0,20.0,68,0.00,,,0.00,0.000000,,2013-05-21 12:01:00,
2013-05-21 05:11:00,51.0,41.0,-100.00,North,0,10.0,20.0,68,0.00,,,0.00,0.000000,,2013-05-21 12:11:00,
2013-05-21 05:21:00,51.0,41.0,-100.00,North,0,10.0,20.0,68,0.00,,,0.00,0.000000,,2013-05-21 12:21:00,
2013-05-21 05:42:00,46.0,39.0,-100.00,North,0,15.0,24.0,75,0.00,,,0.00,0.000000,,2013-05-21 12:42:00,
2013-05-21 05:52:00,46.0,39.0,-100.00,North,0,15.0,24.0,75,0.00,,,0.00,0.000000,,2013-05-21 12:52:00,
2013-05-21 06:01:00,46.0,39.0,-100.00,North,0,15.0,24.0,75,0.00,,,0.00,0.000000,,2013-05-21 13:01:00,
2013-05-21 06:11:00,46.0,39.0,-100.00,North,0,15.0,24.0,75,0.00,,,0.00,0.000000,,2013-05-21 13:11:00,
2013-05-21 06:21:00,46.0,39.0,-100.00,North,0,15.0,24.0,75,0.00,,,0.00,0.000000,,2013-05-21 13:21:00,
2013-05-21 06:42:00,45.0,35.0,-100.00,North,0,6.0,21.0,69,0.00,,,-99.99,5.000000,,2013-05-21 13:42:00,
2013-05-21 06:52:00,45.0,35.0,-100.00,North,0,6.0,21.0,69,0.00,,,-99.99,5.000000,,2013-05-21 13:52:00,
2013-05-21 07:01:00,45.0,35.0,-100.00,North,0,6.0,21.0,69,0.00,,,-99.99,5.000000,,2013-05-21 14:01:00,
2013-05-21 07:11:00,45.0,35.0,-100.00,North,0,6.0,21.0,69,0.00,,,-99.99,5.000000,,2013-05-21 14:11:00,
2013-05-21 07:21:00,45.0,35.0,-100.00,North,0,6.0,21.0,69,0.00,,,-99.99,5.000000,,2013-05-21 14:21:00,
2013-05-21 07:42:00,45.0,35.0,-100.00,North,0,15.0,24.0,69,0.00,,,0.00,19.000000,,2013-05-21 14:42:00,
2013-05-21 07:52:00,45.0,35.0,-100.00,North,0,15.0,24.0,69,0.00,,,0.00,19.000000,,2013-05-21 14:52:00,
2013-05-21 08:01:00,45.0,35.0,-100.00,North,0,15.0,24.0,69,0.00,,,0.00,19.000000,,2013-05-21 15:01:00,
2013-05-21 08:11:00,45.0,35.0,-100.00,North,0,15.0,24.0,69,0.00,,,0.00,19.000000,,2013-05-21 15:11:00,
2013-05-21 08:21:00,45.0,35.0,-100.00,North,0,15.0,24.0,69,0.00,,,0.00,19.000000,,2013-05-21 15:21:00,
2013-05-21 08:42:00,48.0,38.0,-100.00,North,0,9.0,16.0,68,0.00,,,0.00,231.000000,,2013-05-21 15:42:00,
2013-05-21 08:52:00,48.0,38.0,-100.00,North,0,9.0,16.0,68,0.00,,,0.00,231.000000,,2013-05-21 15:52:00,
2013-05-21 09:02:00,48.0,38.0,-100.00,North,0,9.0,16.0,68,0.00,,,0.00,231.000000,,2013-05-21 16:02:00,
2013-05-21 09:12:00,48.0,38.0,-100.00,North,0,9.0,16.0,68,0.00,,,0.00,231.000000,,2013-05-21 16:12:00,
2013-05-21 09:23:00,48.0,38.0,-100.00,North,0,9.0,16.0,68,0.00,,,0.00,231.000000,,2013-05-21 16:23:00,
2013-05-21 09:42:00,48.0,35.0,-100.00,North,0,13.0,20.0,61,0.00,,,0.00,331.000000,,2013-05-21 16:42:00,
2013-05-21 09:53:00,48.0,35.0,-100.00,North,0,13.0,20.0,61,0.00,,,0.00,331.000000,,2013-05-21 16:53:00,
2013-05-21 10:02:00,48.0,35.0,-100.00,North,0,13.0,20.0,61,0.00,,,0.00,331.000000,,2013-05-21 17:02:00,
2013-05-21 10:12:00,48.0,35.0,-100.00,North,0,13.0,20.0,61,0.00,,,0.00,331.000000,,2013-05-21 17:12:00,
2013-05-21 10:22:00,48.0,35.0,-100.00,North,0,13.0,20.0,61,0.00,,,0.00,331.000000,,2013-05-21 17:22:00,
2013-05-21 10:44:00,46.0,32.0,-100.00,North,0,17.0,26.0,58,0.00,,,0.00,212.000000,,2013-05-21 17:44:00,
2013-05-21 10:52:00,46.0,32.0,-100.00,North,0,17.0,26.0,58,0.00,,,0.00,212.000000,,2013-05-21 17:52:00,
2013-05-21 11:01:00,46.0,32.0,-100.00,North,0,17.0,26.0,58,0.00,,,0.00,212.000000,,2013-05-21 18:01:00,
2013-05-21 11:11:00,46.0,32.0,-100.00,North,0,17.0,26.0,58,0.00,,,0.00,212.000000,,2013-05-21 18:11:00,
2013-05-21 11:21:00,46.0,32.0,-100.00,North,0,17.0,26.0,58,0.00,,,0.00,212.000000,,2013-05-21 18:21:00,
2013-05-21 11:42:00,51.0,36.0,-100.00,North,0,17.0,30.0,56,0.00,,,0.00,476.000000,,2013-05-21 18:42:00,
2013-05-21 11:52:00,51.0,36.0,-100.00,North,0,17.0,30.0,56,0.00,,,0.00,476.000000,,2013-05-21 18:52:00,
2013-05-21 12:01:00,51.0,36.0,-100.00,North,0,17.0,30.0,56,0.00,,,0.00,476.000000,,2013-05-21 19:01:00,
2013-05-21 12:11:00,51.0,36.0,-100.00,North,0,17.0,30.0,56,0.00,,,0.00,476.000000,,2013-05-21 19:11:00,
2013-05-21 12:21:00,51.0,36.0,-100.00,North,0,17.0,30.0,56,0.00,,,0.00,476.000000,,2013-05-21 19:21:00,
2013-05-21 12:42:00,50.0,31.0,-100.00,North,0,18.0,30.0,47,0.00,,,0.00,757.000000,,2013-05-21 19:42:00,
2013-05-21 12:52:00,50.0,31.0,-100.00,North,0,18.0,30.0,47,0.00,,,0.00,757.000000,,2013-05-21 19:52:00,
2013-05-21 13:03:00,50.0,31.0,-100.00,North,0,18.0,30.0,47,0.00,,,0.00,757.000000,,2013-05-21 20:03:00,
2013-05-21 13:11:00,50.0,31.0,-100.00,North,0,18.0,30.0,47,0.00,,,0.00,757.000000,,2013-05-21 20:11:00,
2013-05-21 13:21:00,50.0,31.0,-100.00,North,0,18.0,30.0,47,0.00,,,0.00,757.000000,,2013-05-21 20:21:00,
2013-05-21 13:42:00,53.0,33.0,-100.00,North,0,10.0,27.0,46,0.00,,,0.00,823.000000,,2013-05-21 20:42:00,
2013-05-21 13:52:00,53.0,33.0,-100.00,North,0,10.0,27.0,46,0.00,,,0.00,823.000000,,2013-05-21 20:52:00,
2013-05-21 14:01:00,53.0,33.0,-100.00,North,0,10.0,27.0,46,0.00,,,0.00,823.000000,,2013-05-21 21:01:00,
2013-05-21 14:11:00,53.0,33.0,-100.00,North,0,10.0,27.0,46,0.00,,,0.00,823.000000,,2013-05-21 21:11:00,
2013-05-21 14:21:00,53.0,33.0,-100.00,North,0,10.0,27.0,46,0.00,,,0.00,823.000000,,2013-05-21 21:21:00,
2013-05-21 14:43:00,51.0,33.0,-100.00,North,0,13.0,24.0,49,0.00,,,0.00,436.000000,,2013-05-21 21:43:00,
2013-05-21 14:54:00,51.0,33.0,-100.00,North,0,13.0,24.0,49,0.00,,,0.00,436.000000,,2013-05-21 21:54:00,
2013-05-21 15:02:00,51.0,33.0,-100.00,North,0,13.0,24.0,49,0.00,,,0.00,436.000000,,2013-05-21 22:02:00,
2013-05-21 15:12:00,51.0,33.0,-100.00,North,0,13.0,24.0,49,0.00,,,0.00,436.000000,,2013-05-21 22:12:00,
2013-05-21 15:22:00,51.0,33.0,-100.00,North,0,13.0,24.0,49,0.00,,,0.00,436.000000,,2013-05-21 22:22:00,
2013-05-21 15:42:00,51.0,34.0,-100.00,North,0,16.0,24.0,52,0.00,,,0.00,477.000000,,2013-05-21 22:42:00,
2013-05-21 15:52:00,51.0,34.0,-100.00,North,0,16.0,24.0,52,0.00,,,0.00,477.000000,,2013-05-21 22:52:00,
2013-05-21 16:02:00,51.0,34.0,-100.00,North,0,16.0,24.0,52,0.00,,,0.00,477.000000,,2013-05-21 23:02:00,
2013-05-21 16:12:00,51.0,34.0,-100.00,North,0,16.0,24.0,52,0.00,,,0.00,477.000000,,2013-05-21 23:12:00,
2013-05-21 16:22:00,51.0,34.0,-100.00,North,0,16.0,24.0,52,0.00,,,0.00,477.000000,,2013-05-21 23:22:00,
2013-05-21 16:42:00,44.0,32.0,-100.00,North,0,20.0,29.0,63,0.00,,,0.00,134.000000,,2013-05-21 23:42:00,
2013-05-21 16:52:00,44.0,32.0,-100.00,North,0,20.0,29.0,63,0.00,,,0.00,134.000000,,2013-05-21 23:52:00,
2013-05-21 17:01:00,44.0,32.0,-100.00,North,0,20.0,29.0,63,0.00,,,0.00,134.000000,,2013-05-22 00:01:00,
2013-05-21 17:11:00,44.0,32.0,-100.00,North,0,20.0,29.0,63,0.00,,,0.00,134.000000,,2013-05-22 00:11:00,
2013-05-21 17:21:00,44.0,32.0,-100.00,North,0,20.0,29.0,63,0.00,,,0.00,134.000000,,2013-05-22 00:21:00,
2013-05-21 17:42:00,40.0,33.0,-100.00,North,0,22.0,29.0,75,0.00,,,0.00,191.000000,,2013-05-22 00:42:00,
2013-05-21 17:52:00,40.0,33.0,-100.00,North,0,22.0,29.0,75,0.00,,,0.00,191.000000,,2013-05-22 00:52:00,
2013-05-21 18:01:00,40.0,33.0,-100.00,North,0,22.0,29.0,75,0.00,,,0.00,191.000000,,2013-05-22 01:01:00,
2013-05-21 18:11:00,40.0,33.0,-100.00,North,0,22.0,29.0,75,0.00,,,0.00,191.000000,,2013-05-22 01:11:00,
2013-05-21 18:21:00,40.0,33.0,-100.00,North,0,22.0,29.0,75,0.00,,,0.00,191.000000,,2013-05-22 01:21:00,
2013-05-21 18:42:00,40.0,34.0,-100.00,North,0,13.0,27.0,78,0.00,,,0.00,138.000000,,2013-05-22 01:42:00,
2013-05-21 18:52:00,40.0,34.0,-100.00,North,0,13.0,27.0,78,0.00,,,0.00,138.000000,,2013-05-22 01:52:00,
2013-05-21 19:01:00,40.0,34.0,-100.00,North,0,13.0,27.0,78,0.00,,,0.00,138.000000,,2013-05-22 02:01:00,
2013-05-21 19:11:00,40.0,34.0,-100.00,North,0,13.0,27.0,78,0.00,,,0.00,138.000000,,2013-05-22 02:11:00,
2013-05-21 19:21:00,40.0,34.0,-100.00,North,0,13.0,27.0,78,0.00,,,0.00,138.000000,,2013-05-22 02:21:00,
2013-05-21 19:42:00,39.0,31.0,-100.00,North,0,10.0,23.0,73,0.00,,,0.00,53.000000,,2013-05-22 02:42:00,
2013-05-21 19:52:00,39.0,31.0,-100.00,North,0,10.0,23.0,73,0.00,,,0.00,53.000000,,2013-05-22 02:52:00,
2013-05-21 20:01:00,39.0,31.0,-100.00,North,0,10.0,23.0,73,0.00,,,0.00,53.000000,,2013-05-22 03:01:00,
2013-05-21 20:11:00,39.0,31.0,-100.00,North,0,10.0,23.0,73,0.00,,,0.00,53.000000,,2013-05-22 03:11:00,
2013-05-21 20:21:00,39.0,31.0,-100.00,North,0,10.0,23.0,73,0.00,,,0.00,53.000000,,2013-05-22 03:21:00,
2013-05-21 20:43:00,38.0,31.0,-100.00,North,0,13.0,20.0,75,0.00,,,0.00,19.000000,,2013-05-22 03:43:00,
2013-05-21 20:53:00,38.0,31.0,-100.00,North,0,13.0,20.0,75,0.00,,,0.00,19.000000,,2013-05-22 03:53:00,
2013-05-21 21:03:00,38.0,31.0,-100.00,North,0,13.0,20.0,75,0.00,,,0.00,19.000000,,2013-05-22 04:03:00,
2013-05-21 21:12:00,38.0,31.0,-100.00,North,0,13.0,20.0,75,0.00,,,0.00,19.000000,,2013-05-22 04:12:00,
2013-05-21 21:22:00,38.0,31.0,-100.00,North,0,13.0,20.0,75,0.00,,,0.00,19.000000,,2013-05-22 04:22:00,
2013-05-21 21:43:00,36.0,32.0,-100.00,North,0,10.0,20.0,84,0.00,,,0.00,1.000000,,2013-05-22 04:43:00,
2013-05-21 21:53:00,36.0,32.0,-100.00,North,0,10.0,20.0,84,0.00,,,0.00,1.000000,,2013-05-22 04:53:00,
2013-05-21 22:02:00,36.0,32.0,-100.00,North,0,10.0,20.0,84,0.00,,,0.00,1.000000,,2013-05-22 05:02:00,
2013-05-21 22:11:00,36.0,32.0,-100.00,North,0,10.0,20.0,84,0.00,,,0.00,1.000000,,2013-05-22 05:11:00,
2013-05-21 22:21:00,36.0,32.0,-100.00,North,0,10.0,20.0,84,0.00,,,0.00,1.000000,,2013-05-22 05:21:00,
2013-05-21 22:42:00,37.0,30.0,-100.00,North,0,6.0,17.0,75,0.00,,,0.00,0.000000,,2013-05-22 05:42:00,
2013-05-21 22:52:00,37.0,30.0,-100.00,North,0,6.0,17.0,75,0.00,,,0.00,0.000000,,2013-05-22 05:52:00,
2013-05-21 23:01:00,37.0,30.0,-100.00,North,0,6.0,17.0,75,0.00,,,0.00,0.000000,,2013-05-22 06:01:00,
2013-05-21 23:11:00,37.0,30.0,-100.00,North,0,6.0,17.0,75,0.00,,,0.00,0.000000,,2013-05-22 06:11:00,
2013-05-21 23:21:00,37.0,30.0,-100.00,North,0,6.0,17.0,75,0.00,,,0.00,0.000000,,2013-05-22 06:21:00,
2013-05-21 23:42:00,37.0,30.0,-100.00,North,0,6.0,12.0,76,0.00,,,0.00,0.000000,,2013-05-22 06:42:00,
2013-05-21 23:52:00,37.0,30.0,-100.00,North,0,6.0,12.0,76,0.00,,,0.00,0.000000,,2013-05-22 06:52:00,